Time;durP1;ratioP1;P1;durP2;ratioP2;P2;SDS_P1;SDS_P2;PMS_P1;PMS_P2;Temp;Humidity;BMP_temperature;BMP_pressure;BME280_temperature;BME280_humidity;BME280_pressure;Samples;Min_cycle;Max_cycle;Signal;HPM_P1;HPM_P2
2022/05/08 00:01:41;;;;;;;9.43;4.17;;;12.50;99.90;;;;;;4206095;28;20101;-57
2022/05/08 00:03:42;;;;;;;8.57;4.50;;;12.40;99.90;;;;;;4205883;28;20028;-52
2022/05/08 00:05:44;;;;;;;4.90;3.70;;;12.40;99.90;;;;;;4205293;28;20044;-63
2022/05/08 00:07:45;;;;;;;5.43;4.40;;;12.40;99.90;;;;;;4205258;28;20044;-61
2022/05/08 00:09:47;;;;;;;4.13;3.60;;;12.30;99.90;;;;;;4204529;28;20073;-60
2022/05/08 00:11:48;;;;;;;5.40;4.60;;;12.30;99.90;;;;;;4205954;28;20044;-57
2022/05/08 00:13:49;;;;;;;7.67;4.43;;;12.30;99.90;;;;;;4204746;28;20110;-51
2022/05/08 00:15:50;;;;;;;6.77;4.10;;;12.30;99.90;;;;;;4218952;28;20081;-54
2022/05/08 00:17:51;;;;;;;7.80;4.20;;;12.30;99.90;;;;;;4221406;28;20081;-57
2022/05/08 00:19:53;;;;;;;7.00;4.13;;;12.30;99.90;;;;;;4222387;28;20092;-51
2022/05/08 00:21:54;;;;;;;6.60;4.17;;;12.20;99.90;;;;;;4221668;28;20368;-54
2022/05/08 00:23:55;;;;;;;5.23;4.37;;;12.20;99.90;;;;;;4222698;28;20109;-57
2022/05/08 00:25:56;;;;;;;7.43;4.53;;;12.20;99.90;;;;;;4221364;28;20552;-67
2022/05/08 00:27:57;;;;;;;6.20;3.97;;;12.10;99.90;;;;;;4222494;28;20039;-57
2022/05/08 00:29:59;;;;;;;6.70;4.57;;;12.10;99.90;;;;;;4211720;28;20044;-57
2022/05/08 00:32:00;;;;;;;6.63;4.60;;;12.00;99.90;;;;;;4205324;28;20040;-52
2022/05/08 00:34:02;;;;;;;5.23;4.50;;;12.00;99.90;;;;;;4204973;28;20039;-55
2022/05/08 00:36:04;;;;;;;5.60;4.23;;;12.00;99.90;;;;;;4222047;28;20108;-52
2022/05/08 00:38:06;;;;;;;6.70;4.23;;;11.90;99.90;;;;;;4221770;28;20040;-68
2022/05/08 00:40:07;;;;;;;7.23;4.77;;;11.90;99.90;;;;;;4219848;28;20028;-56
2022/05/08 00:42:09;;;;;;;5.30;4.43;;;11.90;99.90;;;;;;4221800;28;20040;-54
2022/05/08 00:44:10;;;;;;;7.87;4.27;;;11.80;99.90;;;;;;4221365;28;20040;-57
2022/05/08 00:46:12;;;;;;;8.03;4.83;;;11.80;99.90;;;;;;4222572;28;20035;-68
2022/05/08 00:48:13;;;;;;;4.90;4.27;;;11.70;99.90;;;;;;4214906;28;20027;-56
2022/05/08 00:50:15;;;;;;;6.63;4.33;;;11.70;99.90;;;;;;4208527;28;20384;-54
2022/05/08 00:52:17;;;;;;;5.23;3.93;;;11.70;99.90;;;;;;4207379;28;20357;-55
2022/05/08 00:54:18;;;;;;;10.23;4.60;;;11.70;99.90;;;;;;4209404;28;20040;-54
2022/05/08 00:56:20;;;;;;;6.30;4.60;;;11.70;99.90;;;;;;4207566;28;20101;-62
2022/05/08 00:58:22;;;;;;;6.80;4.60;;;11.70;99.90;;;;;;4208612;28;20093;-49
2022/05/08 01:00:23;;;;;;;7.00;4.50;;;11.60;99.90;;;;;;4207736;28;20024;-58
2022/05/08 01:02:24;;;;;;;6.20;3.97;;;11.60;99.90;;;;;;4209630;28;20105;-53
2022/05/08 01:04:26;;;;;;;5.17;3.70;;;11.60;99.90;;;;;;4207048;28;20077;-55
2022/05/08 01:06:28;;;;;;;5.50;4.23;;;11.60;99.90;;;;;;4209299;28;20088;-53
2022/05/08 01:08:29;;;;;;;7.77;3.87;;;11.50;99.90;;;;;;4206872;28;20442;-56
2022/05/08 01:10:30;;;;;;;7.80;4.10;;;11.60;99.90;;;;;;4208193;28;20044;-54
2022/05/08 01:12:32;;;;;;;7.47;4.27;;;11.50;99.90;;;;;;4221050;28;20092;-55
2022/05/08 01:14:33;;;;;;;5.77;4.13;;;11.50;99.90;;;;;;4224369;28;20108;-52
2022/05/08 01:16:35;;;;;;;6.27;4.33;;;11.50;99.90;;;;;;4225472;28;20093;-54
2022/05/08 01:18:36;;;;;;;6.40;4.10;;;11.50;99.90;;;;;;4223752;28;20088;-61
2022/05/08 01:20:37;;;;;;;8.23;4.43;;;11.50;99.90;;;;;;4225547;28;20488;-61
2022/05/08 01:22:38;;;;;;;5.37;4.23;;;11.50;99.90;;;;;;4223794;28;20028;-55
2022/05/08 01:24:39;;;;;;;4.60;3.87;;;11.40;99.90;;;;;;4223782;28;20040;-53
2022/05/08 01:26:40;;;;;;;6.27;4.17;;;11.40;99.90;;;;;;4223721;28;20438;-56
2022/05/08 01:28:41;;;;;;;5.77;4.03;;;11.40;99.90;;;;;;4223836;28;20036;-54
2022/05/08 01:30:44;;;;;;;10.43;3.97;;;11.40;99.90;;;;;;4224074;28;20024;-54
2022/05/08 01:32:45;;;;;;;5.27;4.13;;;11.30;99.90;;;;;;4225008;28;20555;-53
2022/05/08 01:34:46;;;;;;;5.00;4.10;;;11.30;99.90;;;;;;4223514;28;20467;-50
2022/05/08 01:36:47;;;;;;;9.37;4.93;;;11.20;99.90;;;;;;4224935;28;20036;-56
2022/05/08 01:38:48;;;;;;;5.60;4.07;;;11.20;99.90;;;;;;4221770;28;20503;-62
2022/05/08 01:40:52;;;;;;;4.80;3.67;;;11.10;99.90;;;;;;4223770;28;20036;-56
2022/05/08 01:42:53;;;;;;;5.23;3.47;;;11.10;99.90;;;;;;4224273;28;20430;-54
2022/05/08 01:44:55;;;;;;;6.47;4.30;;;11.10;99.90;;;;;;4219604;28;20111;-54
2022/05/08 01:49:16;;;;;;;4.88;3.85;;;11.00;99.90;;;;;;4206463;28;20077;-55
2022/05/08 01:51:17;;;;;;;5.73;4.20;;;11.00;99.90;;;;;;4207778;28;20032;-57
2022/05/08 01:53:19;;;;;;;7.37;4.20;;;10.90;99.90;;;;;;4211728;28;20089;-54
2022/05/08 01:55:20;;;;;;;8.03;4.60;;;11.00;99.90;;;;;;4208089;28;20048;-59
2022/05/08 01:57:22;;;;;;;6.47;4.13;;;11.00;99.90;;;;;;4206367;28;20047;-57
2022/05/08 01:59:23;;;;;;;7.47;4.07;;;11.00;99.90;;;;;;4207801;28;20475;-51
2022/05/08 02:01:24;;;;;;;5.93;3.57;;;11.00;99.90;;;;;;4206535;28;20523;-54
2022/05/08 02:03:25;;;;;;;5.07;3.50;;;11.00;99.90;;;;;;4207302;28;20085;-62
2022/05/08 02:05:30;;;;;;;7.20;3.70;;;11.00;99.90;;;;;;4206585;28;20028;-56
2022/05/08 02:07:31;;;;;;;9.20;4.23;;;11.00;99.90;;;;;;4207343;28;20047;-62
2022/05/08 02:09:32;;;;;;;6.17;3.87;;;11.10;99.90;;;;;;4220384;28;20035;-64
2022/05/08 02:11:33;;;;;;;7.47;4.83;;;11.10;99.90;;;;;;4214373;28;20044;-55
2022/05/08 02:13:34;;;;;;;7.67;3.80;;;11.10;99.90;;;;;;4206750;28;20078;-58
2022/05/08 02:15:36;;;;;;;7.93;4.27;;;11.00;99.90;;;;;;4208105;28;20047;-60
2022/05/08 02:17:38;;;;;;;7.63;4.03;;;11.00;99.90;;;;;;4206547;28;20421;-56
2022/05/08 02:19:40;;;;;;;7.63;4.20;;;11.00;99.90;;;;;;4206467;28;20020;-70
2022/05/08 02:21:41;;;;;;;4.97;3.80;;;11.00;99.90;;;;;;4207379;28;20040;-56
2022/05/08 02:23:42;;;;;;;6.33;3.80;;;10.90;99.90;;;;;;4206261;28;20661;-55
2022/05/08 02:25:44;;;;;;;8.37;4.17;;;10.90;99.90;;;;;;4206564;28;20071;-60
2022/05/08 02:27:49;;;;;;;6.23;5.10;;;10.90;99.90;;;;;;4205863;28;20084;-54
2022/05/08 02:29:51;;;;;;;8.70;5.37;;;10.80;99.90;;;;;;4220192;28;20097;-55
2022/05/08 02:31:52;;;;;;;10.57;5.67;;;10.70;99.90;;;;;;4222796;28;20031;-55
2022/05/08 02:33:54;;;;;;;8.33;5.30;;;10.70;99.90;;;;;;4223777;28;20096;-55
2022/05/08 02:35:55;;;;;;;8.93;5.67;;;10.60;99.90;;;;;;4222494;28;20031;-53
2022/05/08 02:37:56;;;;;;;11.87;5.50;;;10.60;99.90;;;;;;4224174;28;20559;-57
2022/05/08 02:39:57;;;;;;;10.40;5.00;;;10.60;99.90;;;;;;4222715;28;20465;-60
2022/05/08 02:41:58;;;;;;;8.37;5.40;;;10.50;99.90;;;;;;4209947;28;20028;-57
2022/05/08 02:43:59;;;;;;;7.20;5.37;;;10.60;99.90;;;;;;4205835;28;20522;-57
2022/05/08 02:46:02;;;;;;;8.07;5.53;;;10.60;99.90;;;;;;4207328;28;20509;-55
2022/05/08 02:48:03;;;;;;;8.13;4.93;;;10.60;99.90;;;;;;4218802;28;20073;-56
2022/05/08 02:50:06;;;;;;;9.17;4.40;;;10.50;99.90;;;;;;4223041;28;20032;-55
2022/05/08 02:52:07;;;;;;;6.47;5.23;;;10.50;99.90;;;;;;4221332;28;20116;-62
2022/05/08 02:54:08;;;;;;;5.47;4.40;;;10.50;99.90;;;;;;4222186;28;20487;-55
2022/05/08 02:58:32;;;;;;;10.07;4.53;;;10.50;99.90;;;;;;4222840;28;20471;-57
2022/05/08 03:00:33;;;;;;;10.83;5.40;;;10.50;99.90;;;;;;4223281;28;20104;-56
2022/05/08 03:02:35;;;;;;;7.93;5.33;;;10.60;99.90;;;;;;4215390;28;20545;-64
2022/05/08 03:04:36;;;;;;;8.77;5.33;;;10.60;99.90;;;;;;4206688;28;20488;-54
2022/05/08 03:06:38;;;;;;;7.03;5.20;;;10.50;99.90;;;;;;4220349;28;20084;-57
2022/05/08 03:08:40;;;;;;;6.97;4.93;;;10.50;99.90;;;;;;4223309;28;20559;-58
2022/05/08 03:13:05;;;;;;;8.23;5.03;;;10.60;99.90;;;;;;4221786;28;20023;-61
2022/05/08 03:15:06;;;;;;;10.73;6.40;;;10.70;99.90;;;;;;4220485;28;20093;-56
2022/05/08 03:17:08;;;;;;;11.30;5.30;;;10.80;99.90;;;;;;4222988;28;20089;-57
2022/05/08 03:19:09;;;;;;;13.97;5.40;;;10.80;99.90;;;;;;4221650;28;20039;-58
2022/05/08 03:21:12;;;;;;;7.50;4.90;;;10.80;99.90;;;;;;4222852;28;20031;-56
2022/05/08 03:23:14;;;;;;;13.50;5.60;;;10.70;99.90;;;;;;4222539;28;20077;-52
2022/05/08 03:25:15;;;;;;;11.70;5.80;;;10.70;99.90;;;;;;4223086;28;20564;-60
2022/05/08 03:27:16;;;;;;;10.07;5.50;;;10.70;99.90;;;;;;4221444;28;20092;-51
2022/05/08 03:29:17;;;;;;;7.97;5.60;;;10.60;99.90;;;;;;4221557;28;20100;-54
2022/05/08 03:31:18;;;;;;;10.57;6.03;;;10.60;99.90;;;;;;4222080;28;20845;-66
2022/05/08 03:33:20;;;;;;;11.57;6.50;;;10.70;99.90;;;;;;4220521;28;20027;-55
2022/05/08 03:35:21;;;;;;;10.00;6.63;;;10.80;99.90;;;;;;4222445;28;20032;-56
2022/05/08 03:37:22;;;;;;;12.03;6.40;;;11.10;99.90;;;;;;4221716;28;20031;-53
2022/05/08 03:39:23;;;;;;;9.20;5.73;;;11.40;99.90;;;;;;4222521;28;20073;-55
2022/05/08 03:41:24;;;;;;;9.63;5.30;;;11.70;99.90;;;;;;4221593;28;20076;-61
2022/05/08 03:43:25;;;;;;;9.10;5.50;;;12.00;99.90;;;;;;4217526;28;20628;-55
2022/05/08 03:45:27;;;;;;;8.30;5.17;;;12.20;99.90;;;;;;4205082;28;20036;-55
2022/05/08 03:47:28;;;;;;;7.87;5.23;;;12.40;99.90;;;;;;4206816;28;20040;-60
2022/05/08 03:49:29;;;;;;;9.27;5.30;;;12.70;99.90;;;;;;4204405;28;20085;-65
2022/05/08 03:51:30;;;;;;;8.93;4.93;;;13.00;99.90;;;;;;4206234;28;20392;-59
2022/05/08 03:53:32;;;;;;;10.13;4.83;;;13.30;99.90;;;;;;4219763;28;20088;-55
2022/05/08 03:55:33;;;;;;;8.07;5.33;;;13.60;99.90;;;;;;4223075;28;20421;-57
2022/05/08 03:57:35;;;;;;;7.37;5.23;;;13.80;99.90;;;;;;4221582;28;20073;-57
2022/05/08 03:59:36;;;;;;;8.47;5.43;;;14.10;99.90;;;;;;4223077;28;20069;-70
2022/05/08 04:01:37;;;;;;;7.67;5.10;;;14.30;99.90;;;;;;4208067;28;20044;-53
2022/05/08 04:03:38;;;;;;;10.47;5.47;;;14.60;99.90;;;;;;4205257;28;20051;-59
2022/05/08 04:05:40;;;;;;;7.10;4.50;;;14.80;99.90;;;;;;4205621;28;20691;-56
2022/05/08 04:07:41;;;;;;;7.47;4.67;;;15.10;99.90;;;;;;4204588;28;20082;-57
2022/05/08 04:09:42;;;;;;;10.37;4.57;;;15.20;99.90;;;;;;4206364;28;20487;-57
2022/05/08 04:11:43;;;;;;;8.53;4.87;;;15.40;99.90;;;;;;4204649;28;20070;-57
2022/05/08 04:13:44;;;;;;;7.13;4.43;;;15.60;99.90;;;;;;4206443;28;20024;-63
2022/05/08 04:18:22;;;;;;;7.37;4.30;;;16.20;99.90;;;;;;4170122;28;20071;-56
2022/05/08 04:20:23;;;;;;;5.82;4.00;;;16.60;99.90;;;;;;4187515;28;20450;-60
2022/05/08 04:24:44;;;;;;;6.63;3.50;;;17.20;99.90;;;;;;4208178;28;20056;-67
2022/05/08 04:26:46;;;;;;;5.70;3.92;;;17.20;99.90;;;;;;4208041;28;20089;-61
2022/05/08 04:28:47;;;;;;;5.15;3.00;;;17.40;99.90;;;;;;4207752;28;20031;-56
2022/05/08 04:30:50;;;;;;;8.02;4.07;;;17.60;99.90;;;;;;4208735;28;20442;-57
2022/05/08 04:32:51;;;;;;;5.65;3.42;;;17.50;99.90;;;;;;4208275;28;20035;-62
2022/05/08 04:34:52;;;;;;;3.78;3.42;;;17.70;99.90;;;;;;4225888;28;20036;-68
2022/05/08 04:36:53;;;;;;;4.32;3.22;;;17.80;99.90;;;;;;4224296;28;20564;-62
2022/05/08 04:38:54;;;;;;;4.03;3.03;;;18.10;99.90;;;;;;4225947;28;20073;-68
2022/05/08 04:40:56;;;;;;;6.88;2.97;;;18.30;99.90;;;;;;4223732;28;20084;-63
2022/05/08 04:42:57;;;;;;;3.92;3.20;;;18.50;99.90;;;;;;4209430;28;20035;-68
2022/05/08 04:44:59;;;;;;;4.70;2.85;;;18.70;99.90;;;;;;4207954;28;20024;-57
2022/05/08 04:47:00;;;;;;;4.03;3.10;;;18.80;99.90;;;;;;4208516;28;20044;-54
2022/05/08 04:49:02;;;;;;;3.55;2.97;;;19.00;99.90;;;;;;4207823;28;20052;-54
2022/05/08 04:51:03;;;;;;;4.97;3.17;;;18.90;99.90;;;;;;4216910;28;20040;-68
2022/05/08 04:53:04;;;;;;;5.68;2.85;;;18.90;99.90;;;;;;4207659;28;20089;-67
2022/05/08 04:55:06;;;;;;;3.10;2.80;;;19.10;99.90;;;;;;4207206;28;20036;-67
2022/05/08 04:57:07;;;;;;;9.43;3.80;;;19.30;99.90;;;;;;4208522;28;20036;-58
2022/05/08 04:59:08;;;;;;;6.15;3.65;;;19.60;99.20;;;;;;4207178;28;20032;-62
2022/05/08 05:01:24;;;;;;;6.65;4.00;;;19.80;99.10;;;;;;4212800;28;20048;-59
2022/05/08 05:03:25;;;;;;;7.97;4.45;;;20.10;98.50;;;;;;4207136;28;20101;-68
2022/05/08 05:05:27;;;;;;;8.55;4.82;;;20.30;98.30;;;;;;4208255;28;20036;-58
2022/05/08 05:07:28;;;;;;;3.67;3.38;;;20.60;97.70;;;;;;4206746;28;20027;-68
2022/05/08 05:09:29;;;;;;;4.47;3.10;;;20.90;97.00;;;;;;4208267;28;20024;-66
2022/05/08 05:11:30;;;;;;;4.68;2.80;;;20.70;96.30;;;;;;4206875;28;20027;-55
2022/05/08 05:13:31;;;;;;;6.25;3.35;;;20.70;96.00;;;;;;4210427;28;20084;-63
2022/05/08 05:15:32;;;;;;;6.25;3.88;;;20.80;95.90;;;;;;4224102;28;20032;-67
2022/05/08 05:17:34;;;;;;;4.78;3.35;;;20.90;95.50;;;;;;4224974;28;20092;-65
2022/05/08 05:19:35;;;;;;;5.72;3.70;;;20.80;95.20;;;;;;4222829;28;20872;-56
2022/05/08 05:21:36;;;;;;;6.13;4.55;;;20.80;95.00;;;;;;4220271;28;20040;-57
2022/05/08 05:23:38;;;;;;;10.13;5.85;;;20.90;94.90;;;;;;4208697;28;20097;-57
2022/05/08 05:25:40;;;;;;;12.00;6.40;;;21.30;94.50;;;;;;4207152;28;20040;-57
2022/05/08 05:27:41;;;;;;;16.67;7.22;;;21.20;94.10;;;;;;4207791;28;20526;-62
2022/05/08 05:29:42;;;;;;;21.00;8.63;;;20.90;94.20;;;;;;4207259;28;20963;-65
2022/05/08 05:31:43;;;;;;;15.20;6.68;;;21.10;94.10;;;;;;4214451;28;20140;-61
2022/05/08 05:33:46;;;;;;;22.70;7.50;;;20.70;93.90;;;;;;4218128;27;20795;-53
2022/05/08 05:35:47;;;;;;;18.80;7.30;;;20.10;94.60;;;;;;4232826;27;20419;-59
2022/05/08 05:37:48;;;;;;;17.30;7.43;;;19.80;95.10;;;;;;4227485;27;20035;-57
2022/05/08 05:39:49;;;;;;;18.27;7.60;;;19.60;95.30;;;;;;4234408;27;20035;-64
2022/05/08 05:41:51;;;;;;;15.88;6.47;;;19.20;95.90;;;;;;4235086;27;20080;-53
2022/05/08 05:43:53;;;;;;;28.23;6.93;;;18.80;96.40;;;;;;4228575;27;20428;-57
2022/05/08 05:48:14;;;;;;;15.23;5.75;;;18.60;97.20;;;;;;4235424;27;20095;-57
2022/05/08 05:50:22;;;;;;;14.80;5.88;;;18.50;97.40;;;;;;4223396;28;20096;-57
2022/05/08 05:52:23;;;;;;;8.93;5.78;;;18.60;97.40;;;;;;4210758;27;20049;-63
2022/05/08 05:54:25;;;;;;;15.13;9.93;;;18.60;97.50;;;;;;4220809;28;20027;-60
2022/05/08 05:56:26;;;;;;;10.27;5.45;;;18.80;97.40;;;;;;4223762;28;20562;-57
2022/05/08 05:58:27;;;;;;;14.95;6.13;;;18.50;97.60;;;;;;4222704;28;20085;-63
2022/05/08 06:00:28;;;;;;;10.77;5.90;;;18.30;98.10;;;;;;4217337;28;20036;-65
2022/05/08 06:02:29;;;;;;;7.78;6.22;;;18.30;98.70;;;;;;4223679;28;20108;-60
2022/05/08 06:04:31;;;;;;;10.30;6.20;;;18.30;99.00;;;;;;4223095;28;20433;-63
2022/05/08 06:06:32;;;;;;;11.93;6.72;;;18.20;99.30;;;;;;4222536;28;20039;-64
2022/05/08 06:08:33;;;;;;;10.02;6.90;;;18.10;99.60;;;;;;4222704;28;20040;-55
2022/05/08 06:10:34;;;;;;;11.25;6.75;;;18.10;99.80;;;;;;4210390;28;20104;-55
2022/05/08 06:12:35;;;;;;;12.43;6.78;;;18.30;99.80;;;;;;4205961;28;20040;-60
2022/05/08 06:14:36;;;;;;;10.80;8.10;;;18.10;99.90;;;;;;4207345;28;20036;-57
2022/05/08 06:16:38;;;;;;;12.85;8.07;;;17.90;99.90;;;;;;4206632;28;20036;-66
2022/05/08 06:18:39;;;;;;;8.43;7.35;;;17.60;99.90;;;;;;4218808;27;20563;-58
2022/05/08 06:20:40;;;;;;;8.85;6.63;;;17.70;99.90;;;;;;4239820;27;20027;-57
2022/05/08 06:22:41;;;;;;;8.23;6.38;;;17.50;99.90;;;;;;4240765;27;20034;-58
2022/05/08 06:24:42;;;;;;;9.20;7.00;;;17.30;99.90;;;;;;4238677;27;20111;-58
2022/05/08 06:26:44;;;;;;;10.70;6.95;;;17.30;99.90;;;;;;4219677;27;20468;-56
2022/05/08 06:28:45;;;;;;;10.50;7.43;;;17.30;99.90;;;;;;4235367;27;20043;-62
2022/05/08 06:30:47;;;;;;;10.45;6.85;;;17.40;99.90;;;;;;4228200;27;20100;-57
2022/05/08 06:32:48;;;;;;;15.25;7.57;;;17.40;99.90;;;;;;4229283;27;20085;-56
2022/05/08 06:34:49;;;;;;;11.05;7.28;;;17.30;99.90;;;;;;4230641;27;20044;-55
2022/05/08 06:36:50;;;;;;;13.88;7.75;;;17.30;99.90;;;;;;4222122;28;20105;-59
2022/05/08 06:38:52;;;;;;;8.02;5.93;;;17.40;99.90;;;;;;4222089;28;20788;-55
2022/05/08 06:40:53;;;;;;;9.25;6.78;;;17.30;99.90;;;;;;4221485;28;20035;-55
2022/05/08 06:42:54;;;;;;;10.43;6.28;;;17.40;99.90;;;;;;4221561;28;20093;-56
2022/05/08 06:44:56;;;;;;;7.10;5.78;;;17.40;99.90;;;;;;4222939;28;20812;-55
2022/05/08 06:46:57;;;;;;;9.05;6.00;;;17.50;99.90;;;;;;4222828;28;20031;-55
2022/05/08 06:48:58;;;;;;;9.93;7.07;;;17.50;99.90;;;;;;4223130;28;20040;-64
2022/05/08 06:51:00;;;;;;;8.73;6.47;;;17.90;99.90;;;;;;4214770;27;20043;-62
2022/05/08 06:53:04;;;;;;;7.25;5.03;;;18.10;99.90;;;;;;4206541;28;20156;-52
2022/05/08 06:55:06;;;;;;;10.00;5.07;;;18.30;99.90;;;;;;4205306;28;20052;-57
2022/05/08 06:57:07;;;;;;;7.47;6.03;;;18.20;99.90;;;;;;4207946;28;20081;-56
2022/05/08 07:01:34;;;;;;;8.15;5.80;;;18.30;99.90;;;;;;4223400;28;20104;-66
2022/05/08 07:03:36;;;;;;;7.55;5.78;;;18.30;99.90;;;;;;4221578;28;20032;-57
2022/05/08 07:05:42;;;;;;;9.38;6.28;;;18.30;99.90;;;;;;4214588;28;20093;-59
2022/05/08 07:07:45;;;;;;;9.23;6.35;;;18.60;99.90;;;;;;4205863;28;20093;-56
2022/05/08 07:09:46;;;;;;;7.75;6.80;;;18.70;99.90;;;;;;4206077;28;20036;-59
2022/05/08 07:11:47;;;;;;;11.52;6.85;;;18.80;99.90;;;;;;4209057;28;20090;-60
2022/05/08 07:13:48;;;;;;;9.13;6.28;;;19.00;99.90;;;;;;4222210;28;20028;-70
2022/05/08 07:15:49;;;;;;;18.25;7.95;;;19.10;99.90;;;;;;4223116;28;20640;-61
2022/05/08 07:17:50;;;;;;;10.38;6.68;;;18.90;99.90;;;;;;4221998;28;20801;-66
2022/05/08 07:19:52;;;;;;;9.82;7.13;;;18.60;99.90;;;;;;4222781;28;20503;-52
2022/05/08 07:21:53;;;;;;;8.38;6.25;;;18.50;99.90;;;;;;4219849;28;20047;-59
2022/05/08 07:23:55;;;;;;;6.75;5.35;;;18.70;99.90;;;;;;4215917;28;20035;-55
2022/05/08 07:25:56;;;;;;;7.18;5.15;;;18.60;99.90;;;;;;4211201;28;20044;-58
2022/05/08 07:27:57;;;;;;;6.97;5.45;;;18.70;99.90;;;;;;4206871;28;20028;-59
2022/05/08 07:29:58;;;;;;;12.55;5.80;;;18.80;99.90;;;;;;4204153;28;21114;-67
2022/05/08 07:31:59;;;;;;;7.18;5.85;;;18.90;99.80;;;;;;4206147;28;20036;-63
2022/05/08 07:36:20;;;;;;;9.75;5.70;;;19.00;99.60;;;;;;4207133;28;20089;-69
2022/05/08 07:38:22;;;;;;;8.30;4.90;;;19.00;99.70;;;;;;4204610;28;20435;-59
2022/05/08 07:40:25;;;;;;;6.75;5.38;;;19.00;99.70;;;;;;4210122;28;20056;-63
2022/05/08 07:42:27;;;;;;;7.63;5.45;;;19.30;99.70;;;;;;4221705;28;20035;-55
2022/05/08 07:44:28;;;;;;;10.73;5.13;;;19.30;99.30;;;;;;4222134;28;20036;-64
2022/05/08 07:46:29;;;;;;;6.38;5.20;;;19.20;99.20;;;;;;4217922;28;20024;-57
2022/05/08 07:48:30;;;;;;;7.30;5.53;;;19.30;99.20;;;;;;4204815;28;20036;-56
2022/05/08 07:50:31;;;;;;;5.50;4.78;;;19.70;98.70;;;;;;4205908;28;20032;-59
2022/05/08 07:52:39;;;;;;;6.07;5.07;;;19.80;98.20;;;;;;4204573;28;20077;-51
2022/05/08 07:54:40;;;;;;;10.02;6.75;;;19.80;98.10;;;;;;4205923;28;20039;-51
2022/05/08 07:56:41;;;;;;;10.10;7.47;;;19.90;98.20;;;;;;4217798;28;20112;-54
2022/05/08 07:58:42;;;;;;;6.45;4.82;;;19.70;98.10;;;;;;4226030;28;20043;-55
2022/05/08 08:00:43;;;;;;;6.28;4.32;;;19.90;98.60;;;;;;4224624;28;20055;-56
2022/05/08 08:02:44;;;;;;;7.80;4.63;;;20.00;97.90;;;;;;4225528;28;20039;-54
2022/05/08 08:04:46;;;;;;;7.93;4.38;;;20.30;97.70;;;;;;4220528;28;20028;-54
2022/05/08 08:06:47;;;;;;;5.93;4.75;;;20.30;97.30;;;;;;4224398;28;20100;-56
2022/05/08 08:08:48;;;;;;;6.38;4.07;;;20.40;97.10;;;;;;4224147;28;20081;-54
2022/05/08 08:10:52;;;;;;;5.70;4.10;;;20.30;97.20;;;;;;4216147;28;20081;-54
2022/05/08 08:12:53;;;;;;;8.13;4.60;;;20.10;97.20;;;;;;4206820;28;20418;-60
2022/05/08 08:14:55;;;;;;;6.80;4.57;;;20.20;97.30;;;;;;4208443;28;20545;-56
2022/05/08 08:16:56;;;;;;;5.88;4.63;;;20.10;97.60;;;;;;4208194;28;20089;-52
2022/05/08 08:18:58;;;;;;;6.50;4.05;;;20.20;97.70;;;;;;4207351;28;20048;-56
2022/05/08 08:20:59;;;;;;;6.38;4.82;;;20.20;97.50;;;;;;4208478;28;20027;-53
2022/05/08 08:23:00;;;;;;;5.38;4.25;;;20.20;97.40;;;;;;4207631;28;20441;-58
2022/05/08 08:25:01;;;;;;;6.18;4.43;;;20.30;97.40;;;;;;4208429;28;20093;-57
2022/05/08 08:27:03;;;;;;;9.52;4.85;;;20.30;97.40;;;;;;4207267;28;20093;-56
2022/05/08 08:29:04;;;;;;;5.53;4.90;;;20.20;97.40;;;;;;4208684;28;20023;-55
2022/05/08 08:31:06;;;;;;;7.05;5.00;;;20.10;97.60;;;;;;4207320;28;20047;-55
2022/05/08 08:33:08;;;;;;;6.45;4.22;;;20.20;97.80;;;;;;4208744;28;20040;-56
2022/05/08 08:35:09;;;;;;;8.25;4.70;;;20.20;97.70;;;;;;4206696;28;20040;-55
2022/05/08 08:37:10;;;;;;;5.32;4.82;;;20.40;97.60;;;;;;4208338;28;20446;-57
2022/05/08 08:39:11;;;;;;;5.78;5.07;;;20.50;97.30;;;;;;4207185;28;20540;-57
2022/05/08 08:41:14;;;;;;;8.52;4.68;;;20.50;97.30;;;;;;4208658;28;20742;-56
2022/05/08 08:43:16;;;;;;;10.90;6.20;;;20.50;97.00;;;;;;4207240;28;20521;-56
2022/05/08 08:48:00;;;;;;;6.22;5.28;;;20.50;97.10;;;;;;4208262;28;20020;-57
2022/05/08 08:50:04;;;;;;;13.38;5.80;;;20.50;97.00;;;;;;4208466;28;20490;-57
2022/05/08 08:52:06;;;;;;;12.82;5.43;;;20.70;96.90;;;;;;4206696;28;20020;-56
2022/05/08 08:54:08;;;;;;;7.90;5.10;;;20.90;96.70;;;;;;4206383;28;20032;-53
2022/05/08 08:56:09;;;;;;;7.63;6.10;;;20.90;96.70;;;;;;4206818;28;20477;-56
2022/05/08 08:58:10;;;;;;;9.68;6.05;;;20.80;96.80;;;;;;4207797;28;20113;-58
2022/05/08 09:00:12;;;;;;;9.93;5.90;;;20.70;96.80;;;;;;4207172;28;20036;-57
2022/05/08 09:02:19;;;;;;;7.05;5.55;;;20.80;96.80;;;;;;4207448;28;20101;-59
2022/05/08 09:04:21;;;;;;;6.68;5.32;;;20.80;96.60;;;;;;4206220;28;20097;-55
2022/05/08 09:06:22;;;;;;;8.98;6.03;;;20.70;96.70;;;;;;4206440;28;20456;-61
2022/05/08 09:08:32;;;;;;;9.38;6.38;;;20.70;96.70;;;;;;4206810;28;20048;-59
2022/05/08 09:10:36;;;;;;;9.60;6.05;;;20.70;96.80;;;;;;4207009;28;20039;-65
2022/05/08 09:12:38;;;;;;;8.10;6.30;;;20.60;96.70;;;;;;4208045;28;20032;-59
2022/05/08 09:14:39;;;;;;;8.27;5.78;;;20.80;96.70;;;;;;4206318;28;20040;-58
2022/05/08 09:16:53;;;;;;;10.60;6.00;;;20.90;96.60;;;;;;4208142;28;20085;-56
2022/05/08 09:18:54;;;;;;;7.80;5.22;;;20.90;96.50;;;;;;4206755;28;20061;-56
2022/05/08 09:21:54;;;;;;;6.22;5.30;;;20.90;96.00;;;;;;4207790;28;20044;-57
2022/05/08 09:23:22;;;;;;;10.50;5.85;;;21.00;95.80;;;;;;4206170;28;20032;-58
2022/05/08 09:25:23;;;;;;;8.25;5.75;;;21.00;95.90;;;;;;4207404;28;20052;-54
2022/05/08 09:27:24;;;;;;;12.32;6.03;;;21.00;95.70;;;;;;4206000;28;20044;-59
2022/05/08 09:29:25;;;;;;;10.27;6.60;;;20.90;95.80;;;;;;4208164;28;20985;-56
2022/05/08 09:31:40;;;;;;;8.93;6.07;;;20.90;96.00;;;;;;4206431;28;20027;-55
2022/05/08 09:33:46;;;;;;;6.55;5.80;;;20.90;95.80;;;;;;4207681;28;20035;-57
2022/05/08 09:35:48;;;;;;;7.40;5.63;;;20.70;96.00;;;;;;4206153;28;20422;-56
2022/05/08 09:37:53;;;;;;;8.80;5.05;;;20.70;95.90;;;;;;4208066;28;20856;-61
2022/05/08 09:40:19;;;;;;;8.32;5.82;;;20.70;95.60;;;;;;4204607;28;20043;-56
2022/05/08 09:42:37;;;;;;;11.43;5.63;;;20.90;95.70;;;;;;4207885;28;20512;-56
2022/05/08 09:45:08;;;;;;;6.47;4.80;;;21.00;95.40;;;;;;4206254;28;20496;-53
2022/05/08 09:47:30;;;;;;;6.60;5.50;;;21.00;95.00;;;;;;4207473;28;20044;-58
2022/05/08 09:49:33;;;;;;;5.15;4.65;;;21.00;95.30;;;;;;4205469;28;20040;-52
2022/05/08 09:51:35;;;;;;;7.80;5.45;;;21.10;95.20;;;;;;4206829;28;20028;-56
2022/05/08 09:53:39;;;;;;;11.43;6.43;;;21.00;95.10;;;;;;4206208;28;20911;-56
2022/05/08 09:55:40;;;;;;;9.30;6.10;;;21.00;95.10;;;;;;4208001;28;20655;-56
2022/05/08 09:57:42;;;;;;;8.48;5.85;;;21.00;95.30;;;;;;4205606;28;20529;-51
2022/05/08 09:59:43;;;;;;;8.15;6.57;;;21.00;95.50;;;;;;4207564;28;20493;-54
2022/05/08 10:01:44;;;;;;;9.32;5.65;;;20.90;95.30;;;;;;4205793;28;20028;-57
2022/05/08 10:03:46;;;;;;;5.95;5.35;;;21.00;95.10;;;;;;4206898;28;20044;-60
2022/05/08 10:05:48;;;;;;;6.63;4.82;;;21.00;94.90;;;;;;4205611;28;20036;-57
2022/05/08 10:07:50;;;;;;;4.57;4.18;;;20.90;94.60;;;;;;4207262;28;20075;-63
2022/05/08 10:14:35;;;;;;;7.20;5.28;;;21.00;93.90;;;;;;4205924;28;20181;-60
2022/05/08 10:16:53;;;;;;;7.13;5.10;;;21.00;94.00;;;;;;4207262;28;20104;-57
2022/05/08 10:18:54;;;;;;;10.73;5.70;;;21.00;93.90;;;;;;4205343;28;20055;-56
2022/05/08 10:20:58;;;;;;;9.82;5.35;;;21.10;93.80;;;;;;4207236;28;20028;-62
2022/05/08 10:23:01;;;;;;;9.45;6.13;;;21.20;94.10;;;;;;4205172;28;20055;-58
2022/05/08 10:25:15;;;;;;;6.63;5.15;;;21.20;94.00;;;;;;4206376;28;20088;-56
2022/05/08 10:27:28;;;;;;;9.35;5.88;;;21.30;94.00;;;;;;4205641;28;20492;-62
2022/05/08 10:29:30;;;;;;;11.43;6.28;;;21.40;93.40;;;;;;4206923;28;20035;-56
2022/05/08 10:31:48;;;;;;;7.55;5.85;;;21.40;93.80;;;;;;4205041;28;20040;-60
2022/05/08 10:34:18;;;;;;;7.68;5.65;;;;;;;;;;4207014;28;20044;-57
2022/05/08 10:36:19;;;;;;;8.10;5.20;;;21.40;93.70;;;;;;4190827;28;20089;-57
2022/05/08 10:38:21;;;;;;;12.70;6.43;;;21.70;93.90;;;;;;4207317;28;20040;-56
2022/05/08 10:40:22;;;;;;;8.27;6.53;;;21.60;93.70;;;;;;4205269;28;20028;-58
2022/05/08 10:42:30;;;;;;;8.45;6.00;;;21.60;93.70;;;;;;4206933;28;20294;-58
2022/05/08 10:44:40;;;;;;;9.80;5.95;;;21.60;93.20;;;;;;4205065;28;20944;-55
2022/05/08 10:46:41;;;;;;;;;;;21.50;93.50;;;;;;4207299;28;20064;-56
2022/05/08 10:48:43;;;;;;;8.77;6.05;;;21.50;93.70;;;;;;4204979;28;19904;-57
2022/05/08 10:50:55;;;;;;;8.85;6.50;;;21.60;93.70;;;;;;4206001;28;20048;-56
2022/05/08 10:52:58;;;;;;;10.02;6.45;;;21.50;93.80;;;;;;4204632;28;20028;-53
2022/05/08 10:55:03;;;;;;;7.43;5.78;;;21.60;93.80;;;;;;4206337;28;20109;-57
2022/05/08 10:57:04;;;;;;;6.93;6.03;;;;;;;;;;4205192;28;20024;-53
2022/05/08 10:59:06;;;;;;;7.70;6.10;;;;;;;;;;4205709;28;20027;-50
2022/05/08 11:01:11;;;;;;;9.25;6.60;;;;;;;;;;4206073;28;20020;-55
2022/05/08 11:03:20;;;;;;;9.77;6.68;;;21.60;93.80;;;;;;4205116;28;20036;-56